Elbow, Canada
Current Conditions -  °F | °C
As of 12:00 PM on Thursday 18 Dec 2014 (Local Time) from CYXE Reporting Station
Haze Haze  
Wind Chill: -10°   Ceiling: 300
Heat Index: -5°   Visibility: 6mi
Dew Point: -5°   Wind: 7mph
Humidity: 100%   Direction: 210°SSW
Pressure: 29.9"   Gusts: NA
Location:  51.12°N, 106.6°W
Report Text: CYXE 181800Z 21006KT 6SM BR OVC003 M05/M05 A2990 RMK ST8 SLP159
Loading
Personal Weather Stations






























Interactive Weather Map New forecast layout! Learn more

10-Day Weather Forecast

Advertisements
Track Severe Weather on mobile